sensor_id;sensor_type;location;lat;lon;timestamp;P1;durP1;ratioP1;P2;durP2;ratioP2
10246;SDS011;5168;47.854;7.944;2023-03-21T00:00:38;2.43;;;2.00;;
10246;SDS011;5168;47.854;7.944;2023-03-21T00:03:03;2.17;;;2.00;;
10246;SDS011;5168;47.854;7.944;2023-03-21T00:05:29;2.27;;;2.00;;
10246;SDS011;5168;47.854;7.944;2023-03-21T00:07:55;2.00;;;1.90;;
10246;SDS011;5168;47.854;7.944;2023-03-21T00:10:21;2.40;;;2.20;;
10246;SDS011;5168;47.854;7.944;2023-03-21T00:12:47;2.40;;;2.20;;
10246;SDS011;5168;47.854;7.944;2023-03-21T00:15:19;2.37;;;2.17;;
10246;SDS011;5168;47.854;7.944;2023-03-21T00:17:45;2.50;;;2.30;;
10246;SDS011;5168;47.854;7.944;2023-03-21T00:20:14;2.40;;;2.20;;
10246;SDS011;5168;47.854;7.944;2023-03-21T00:22:40;2.20;;;2.03;;
10246;SDS011;5168;47.854;7.944;2023-03-21T00:25:07;2.50;;;2.30;;
10246;SDS011;5168;47.854;7.944;2023-03-21T00:27:33;2.90;;;2.60;;
10246;SDS011;5168;47.854;7.944;2023-03-21T00:29:59;2.20;;;2.10;;
10246;SDS011;5168;47.854;7.944;2023-03-21T00:32:25;2.60;;;2.40;;
10246;SDS011;5168;47.854;7.944;2023-03-21T00:34:51;2.90;;;2.60;;
10246;SDS011;5168;47.854;7.944;2023-03-21T00:37:17;2.60;;;2.40;;
10246;SDS011;5168;47.854;7.944;2023-03-21T00:39:43;2.20;;;2.10;;
10246;SDS011;5168;47.854;7.944;2023-03-21T00:42:13;2.33;;;2.13;;
10246;SDS011;5168;47.854;7.944;2023-03-21T00:44:41;2.23;;;2.13;;
10246;SDS011;5168;47.854;7.944;2023-03-21T00:47:09;2.97;;;2.50;;
10246;SDS011;5168;47.854;7.944;2023-03-21T00:49:36;2.00;;;1.90;;
10246;SDS011;5168;47.854;7.944;2023-03-21T00:52:04;2.60;;;2.40;;
10246;SDS011;5168;47.854;7.944;2023-03-21T00:54:32;2.60;;;2.40;;
10246;SDS011;5168;47.854;7.944;2023-03-21T00:56:58;2.40;;;2.20;;
10246;SDS011;5168;47.854;7.944;2023-03-21T00:59:23;2.27;;;2.07;;
10246;SDS011;5168;47.854;7.944;2023-03-21T01:01:49;2.43;;;2.23;;
10246;SDS011;5168;47.854;7.944;2023-03-21T01:04:17;2.10;;;2.00;;
10246;SDS011;5168;47.854;7.944;2023-03-21T01:06:43;2.27;;;2.07;;
10246;SDS011;5168;47.854;7.944;2023-03-21T01:09:13;2.47;;;2.27;;
10246;SDS011;5168;47.854;7.944;2023-03-21T01:11:45;3.30;;;2.40;;
10246;SDS011;5168;47.854;7.944;2023-03-21T01:14:14;3.03;;;2.10;;
10246;SDS011;5168;47.854;7.944;2023-03-21T01:16:41;3.23;;;2.27;;
10246;SDS011;5168;47.854;7.944;2023-03-21T01:19:07;2.30;;;2.13;;
10246;SDS011;5168;47.854;7.944;2023-03-21T01:21:35;2.57;;;2.37;;
10246;SDS011;5168;47.854;7.944;2023-03-21T01:24:01;3.33;;;2.27;;
10246;SDS011;5168;47.854;7.944;2023-03-21T01:26:27;2.50;;;2.30;;
10246;SDS011;5168;47.854;7.944;2023-03-21T01:28:53;2.87;;;2.63;;
10246;SDS011;5168;47.854;7.944;2023-03-21T01:31:19;4.03;;;2.43;;
10246;SDS011;5168;47.854;7.944;2023-03-21T01:33:45;2.70;;;2.50;;
10246;SDS011;5168;47.854;7.944;2023-03-21T01:36:15;2.70;;;2.50;;
10246;SDS011;5168;47.854;7.944;2023-03-21T01:38:42;3.00;;;2.40;;
10246;SDS011;5168;47.854;7.944;2023-03-21T01:41:12;2.87;;;2.40;;
10246;SDS011;5168;47.854;7.944;2023-03-21T01:43:44;2.30;;;2.10;;
10246;SDS011;5168;47.854;7.944;2023-03-21T01:48:50;2.10;;;1.90;;
10246;SDS011;5168;47.854;7.944;2023-03-21T01:51:33;2.20;;;2.00;;
10246;SDS011;5168;47.854;7.944;2023-03-21T01:54:01;2.40;;;2.20;;
10246;SDS011;5168;47.854;7.944;2023-03-21T01:56:32;3.00;;;2.77;;
10246;SDS011;5168;47.854;7.944;2023-03-21T01:59:07;2.33;;;2.13;;
10246;SDS011;5168;47.854;7.944;2023-03-21T02:01:38;2.30;;;2.10;;
10246;SDS011;5168;47.854;7.944;2023-03-21T02:04:06;2.70;;;2.50;;
10246;SDS011;5168;47.854;7.944;2023-03-21T02:06:47;3.90;;;2.30;;
10246;SDS011;5168;47.854;7.944;2023-03-21T02:09:17;2.80;;;2.60;;
10246;SDS011;5168;47.854;7.944;2023-03-21T02:11:47;2.33;;;2.13;;
10246;SDS011;5168;47.854;7.944;2023-03-21T02:14:15;2.93;;;2.50;;
10246;SDS011;5168;47.854;7.944;2023-03-21T02:20:09;2.57;;;2.37;;
10246;SDS011;5168;47.854;7.944;2023-03-21T02:23:01;2.30;;;2.10;;
10246;SDS011;5168;47.854;7.944;2023-03-21T02:29:22;2.80;;;2.60;;
10246;SDS011;5168;47.854;7.944;2023-03-21T02:34:54;2.73;;;2.53;;
10246;SDS011;5168;47.854;7.944;2023-03-21T02:37:30;3.03;;;2.70;;
10246;SDS011;5168;47.854;7.944;2023-03-21T02:40:18;4.27;;;2.30;;
10246;SDS011;5168;47.854;7.944;2023-03-21T02:45:51;2.57;;;2.37;;
10246;SDS011;5168;47.854;7.944;2023-03-21T02:48:21;2.13;;;2.00;;
10246;SDS011;5168;47.854;7.944;2023-03-21T02:50:53;2.63;;;2.43;;
10246;SDS011;5168;47.854;7.944;2023-03-21T02:53:22;2.43;;;2.23;;
10246;SDS011;5168;47.854;7.944;2023-03-21T02:55:50;2.97;;;2.40;;
10246;SDS011;5168;47.854;7.944;2023-03-21T02:58:21;2.83;;;2.30;;
10246;SDS011;5168;47.854;7.944;2023-03-21T03:00:48;2.13;;;2.00;;
10246;SDS011;5168;47.854;7.944;2023-03-21T03:03:14;3.23;;;2.60;;
10246;SDS011;5168;47.854;7.944;2023-03-21T03:05:42;3.73;;;2.73;;
10246;SDS011;5168;47.854;7.944;2023-03-21T03:08:26;2.83;;;2.63;;
10246;SDS011;5168;47.854;7.944;2023-03-21T03:16:45;2.30;;;2.10;;
10246;SDS011;5168;47.854;7.944;2023-03-21T03:19:18;2.70;;;2.50;;
10246;SDS011;5168;47.854;7.944;2023-03-21T03:25:04;2.77;;;2.57;;
10246;SDS011;5168;47.854;7.944;2023-03-21T03:27:35;3.60;;;2.30;;
10246;SDS011;5168;47.854;7.944;2023-03-21T03:30:05;2.43;;;2.27;;
10246;SDS011;5168;47.854;7.944;2023-03-21T03:34:59;3.10;;;2.80;;
10246;SDS011;5168;47.854;7.944;2023-03-21T03:37:27;2.87;;;2.50;;
10246;SDS011;5168;47.854;7.944;2023-03-21T03:39:59;2.67;;;2.47;;
10246;SDS011;5168;47.854;7.944;2023-03-21T03:42:37;2.50;;;2.30;;
10246;SDS011;5168;47.854;7.944;2023-03-21T03:45:11;2.83;;;2.30;;
10246;SDS011;5168;47.854;7.944;2023-03-21T03:47:48;2.30;;;2.10;;
10246;SDS011;5168;47.854;7.944;2023-03-21T03:53:12;2.17;;;2.07;;
10246;SDS011;5168;47.854;7.944;2023-03-21T03:55:45;2.40;;;2.20;;
10246;SDS011;5168;47.854;7.944;2023-03-21T03:58:13;1.90;;;1.80;;
10246;SDS011;5168;47.854;7.944;2023-03-21T04:00:43;2.17;;;2.00;;
10246;SDS011;5168;47.854;7.944;2023-03-21T04:03:09;2.40;;;2.20;;
10246;SDS011;5168;47.854;7.944;2023-03-21T04:05:35;1.80;;;1.70;;
10246;SDS011;5168;47.854;7.944;2023-03-21T04:08:01;2.30;;;2.10;;
10246;SDS011;5168;47.854;7.944;2023-03-21T04:10:27;2.03;;;1.93;;
10246;SDS011;5168;47.854;7.944;2023-03-21T04:12:53;2.30;;;2.10;;
10246;SDS011;5168;47.854;7.944;2023-03-21T04:15:18;3.07;;;2.30;;
10246;SDS011;5168;47.854;7.944;2023-03-21T04:17:44;2.57;;;2.37;;
10246;SDS011;5168;47.854;7.944;2023-03-21T04:20:10;2.20;;;2.00;;
10246;SDS011;5168;47.854;7.944;2023-03-21T04:22:36;2.63;;;2.20;;
10246;SDS011;5168;47.854;7.944;2023-03-21T04:25:02;2.40;;;2.20;;
10246;SDS011;5168;47.854;7.944;2023-03-21T04:27:29;2.60;;;2.40;;
10246;SDS011;5168;47.854;7.944;2023-03-21T04:29:55;2.70;;;2.50;;
10246;SDS011;5168;47.854;7.944;2023-03-21T04:32:20;2.53;;;2.33;;
10246;SDS011;5168;47.854;7.944;2023-03-21T04:34:50;2.70;;;2.50;;
10246;SDS011;5168;47.854;7.944;2023-03-21T04:37:18;2.53;;;2.33;;
10246;SDS011;5168;47.854;7.944;2023-03-21T04:39:45;2.60;;;2.40;;
10246;SDS011;5168;47.854;7.944;2023-03-21T04:42:11;3.17;;;2.00;;
10246;SDS011;5168;47.854;7.944;2023-03-21T04:44:38;2.40;;;2.20;;
10246;SDS011;5168;47.854;7.944;2023-03-21T04:47:04;2.67;;;2.47;;
10246;SDS011;5168;47.854;7.944;2023-03-21T04:49:30;2.70;;;2.50;;
10246;SDS011;5168;47.854;7.944;2023-03-21T04:51:57;2.57;;;2.37;;
10246;SDS011;5168;47.854;7.944;2023-03-21T04:54:23;2.60;;;2.40;;
10246;SDS011;5168;47.854;7.944;2023-03-21T04:56:49;2.63;;;2.43;;
10246;SDS011;5168;47.854;7.944;2023-03-21T04:59:16;2.60;;;2.40;;
10246;SDS011;5168;47.854;7.944;2023-03-21T05:01:42;5.20;;;2.63;;
10246;SDS011;5168;47.854;7.944;2023-03-21T05:04:09;2.40;;;2.20;;
10246;SDS011;5168;47.854;7.944;2023-03-21T05:06:36;2.70;;;2.50;;
10246;SDS011;5168;47.854;7.944;2023-03-21T05:09:02;2.53;;;2.33;;
10246;SDS011;5168;47.854;7.944;2023-03-21T05:11:32;2.53;;;2.20;;
10246;SDS011;5168;47.854;7.944;2023-03-21T05:14:01;2.60;;;2.40;;
10246;SDS011;5168;47.854;7.944;2023-03-21T05:16:27;2.60;;;2.40;;
10246;SDS011;5168;47.854;7.944;2023-03-21T05:18:54;2.50;;;2.30;;
10246;SDS011;5168;47.854;7.944;2023-03-21T05:21:21;2.50;;;2.30;;
10246;SDS011;5168;47.854;7.944;2023-03-21T05:23:47;2.57;;;2.37;;
10246;SDS011;5168;47.854;7.944;2023-03-21T05:26:18;4.07;;;2.80;;
10246;SDS011;5168;47.854;7.944;2023-03-21T05:28:45;3.00;;;2.80;;
10246;SDS011;5168;47.854;7.944;2023-03-21T05:31:12;2.83;;;2.63;;
10246;SDS011;5168;47.854;7.944;2023-03-21T05:33:40;2.47;;;2.27;;
10246;SDS011;5168;47.854;7.944;2023-03-21T05:36:06;3.57;;;2.53;;
10246;SDS011;5168;47.854;7.944;2023-03-21T05:38:32;3.00;;;2.80;;
10246;SDS011;5168;47.854;7.944;2023-03-21T05:40:58;3.30;;;3.00;;
10246;SDS011;5168;47.854;7.944;2023-03-21T05:43:24;3.17;;;2.50;;
10246;SDS011;5168;47.854;7.944;2023-03-21T05:45:49;3.30;;;3.00;;
10246;SDS011;5168;47.854;7.944;2023-03-21T05:48:15;3.17;;;2.97;;
10246;SDS011;5168;47.854;7.944;2023-03-21T05:50:42;3.53;;;3.20;;
10246;SDS011;5168;47.854;7.944;2023-03-21T05:53:07;4.67;;;3.30;;
10246;SDS011;5168;47.854;7.944;2023-03-21T05:55:33;3.73;;;3.43;;
10246;SDS011;5168;47.854;7.944;2023-03-21T05:57:59;3.90;;;3.33;;
10246;SDS011;5168;47.854;7.944;2023-03-21T06:00:25;3.87;;;3.57;;
10246;SDS011;5168;47.854;7.944;2023-03-21T06:02:50;3.40;;;3.10;;
10246;SDS011;5168;47.854;7.944;2023-03-21T06:05:16;4.20;;;3.13;;
10246;SDS011;5168;47.854;7.944;2023-03-21T06:07:42;3.20;;;2.90;;
10246;SDS011;5168;47.854;7.944;2023-03-21T06:10:08;3.33;;;3.03;;
10246;SDS011;5168;47.854;7.944;2023-03-21T06:12:34;3.73;;;3.43;;
10246;SDS011;5168;47.854;7.944;2023-03-21T06:15:00;4.00;;;3.70;;
10246;SDS011;5168;47.854;7.944;2023-03-21T06:17:26;3.63;;;3.33;;
10246;SDS011;5168;47.854;7.944;2023-03-21T06:19:51;3.73;;;3.43;;
10246;SDS011;5168;47.854;7.944;2023-03-21T06:22:17;4.57;;;4.17;;
10246;SDS011;5168;47.854;7.944;2023-03-21T06:24:43;4.43;;;3.70;;
10246;SDS011;5168;47.854;7.944;2023-03-21T06:27:08;4.37;;;3.70;;
10246;SDS011;5168;47.854;7.944;2023-03-21T06:29:34;4.10;;;3.60;;
10246;SDS011;5168;47.854;7.944;2023-03-21T06:31:59;3.70;;;3.40;;
10246;SDS011;5168;47.854;7.944;2023-03-21T06:34:25;3.37;;;3.07;;
10246;SDS011;5168;47.854;7.944;2023-03-21T06:36:51;3.43;;;2.93;;
10246;SDS011;5168;47.854;7.944;2023-03-21T06:39:18;3.40;;;3.10;;
10246;SDS011;5168;47.854;7.944;2023-03-21T06:41:44;3.70;;;3.40;;
10246;SDS011;5168;47.854;7.944;2023-03-21T06:44:10;3.40;;;3.17;;
10246;SDS011;5168;47.854;7.944;2023-03-21T06:46:36;3.47;;;3.17;;
10246;SDS011;5168;47.854;7.944;2023-03-21T06:49:02;3.90;;;3.50;;
10246;SDS011;5168;47.854;7.944;2023-03-21T06:51:28;4.17;;;3.30;;
10246;SDS011;5168;47.854;7.944;2023-03-21T06:53:54;3.90;;;3.60;;
10246;SDS011;5168;47.854;7.944;2023-03-21T06:56:20;3.77;;;3.47;;
10246;SDS011;5168;47.854;7.944;2023-03-21T06:58:45;4.17;;;3.77;;
10246;SDS011;5168;47.854;7.944;2023-03-21T07:01:11;4.30;;;3.90;;
10246;SDS011;5168;47.854;7.944;2023-03-21T07:03:38;4.20;;;3.80;;
10246;SDS011;5168;47.854;7.944;2023-03-21T07:06:05;3.77;;;3.47;;
10246;SDS011;5168;47.854;7.944;2023-03-21T07:08:37;4.60;;;4.20;;
10246;SDS011;5168;47.854;7.944;2023-03-21T07:11:04;4.80;;;4.37;;
10246;SDS011;5168;47.854;7.944;2023-03-21T07:13:30;4.90;;;4.50;;
10246;SDS011;5168;47.854;7.944;2023-03-21T07:15:56;6.47;;;4.90;;
10246;SDS011;5168;47.854;7.944;2023-03-21T07:18:22;5.07;;;4.57;;
10246;SDS011;5168;47.854;7.944;2023-03-21T07:20:48;5.73;;;4.93;;
10246;SDS011;5168;47.854;7.944;2023-03-21T07:23:19;5.63;;;4.50;;
10246;SDS011;5168;47.854;7.944;2023-03-21T07:25:47;3.83;;;3.53;;
10246;SDS011;5168;47.854;7.944;2023-03-21T07:28:14;4.60;;;4.17;;
10246;SDS011;5168;47.854;7.944;2023-03-21T07:30:40;4.57;;;4.17;;
10246;SDS011;5168;47.854;7.944;2023-03-21T07:33:06;4.70;;;4.30;;
10246;SDS011;5168;47.854;7.944;2023-03-21T07:35:31;4.50;;;4.10;;
10246;SDS011;5168;47.854;7.944;2023-03-21T07:37:57;4.67;;;4.17;;
10246;SDS011;5168;47.854;7.944;2023-03-21T07:40:23;3.83;;;3.53;;
10246;SDS011;5168;47.854;7.944;2023-03-21T07:42:49;3.57;;;3.27;;
10246;SDS011;5168;47.854;7.944;2023-03-21T07:45:17;4.03;;;3.30;;
10246;SDS011;5168;47.854;7.944;2023-03-21T07:47:46;4.10;;;3.80;;
10246;SDS011;5168;47.854;7.944;2023-03-21T07:50:12;3.70;;;3.40;;
10246;SDS011;5168;47.854;7.944;2023-03-21T07:52:38;3.77;;;3.20;;
10246;SDS011;5168;47.854;7.944;2023-03-21T07:55:04;3.53;;;3.23;;
10246;SDS011;5168;47.854;7.944;2023-03-21T07:57:30;2.93;;;2.67;;
10246;SDS011;5168;47.854;7.944;2023-03-21T07:59:56;3.47;;;3.17;;
10246;SDS011;5168;47.854;7.944;2023-03-21T08:02:22;3.80;;;3.13;;
10246;SDS011;5168;47.854;7.944;2023-03-21T08:04:47;3.43;;;3.10;;
10246;SDS011;5168;47.854;7.944;2023-03-21T08:07:13;3.27;;;2.90;;
10246;SDS011;5168;47.854;7.944;2023-03-21T08:09:39;2.70;;;2.50;;
10246;SDS011;5168;47.854;7.944;2023-03-21T08:12:05;2.60;;;2.40;;
10246;SDS011;5168;47.854;7.944;2023-03-21T08:14:32;3.17;;;2.87;;
10246;SDS011;5168;47.854;7.944;2023-03-21T08:16:58;2.93;;;2.63;;
10246;SDS011;5168;47.854;7.944;2023-03-21T08:19:24;2.67;;;2.47;;
10246;SDS011;5168;47.854;7.944;2023-03-21T08:21:51;2.73;;;2.53;;
10246;SDS011;5168;47.854;7.944;2023-03-21T08:24:17;3.30;;;3.00;;
10246;SDS011;5168;47.854;7.944;2023-03-21T08:26:42;4.10;;;2.80;;
10246;SDS011;5168;47.854;7.944;2023-03-21T08:29:09;2.97;;;2.77;;
10246;SDS011;5168;47.854;7.944;2023-03-21T08:31:38;2.90;;;2.60;;
10246;SDS011;5168;47.854;7.944;2023-03-21T08:34:04;2.90;;;2.60;;
10246;SDS011;5168;47.854;7.944;2023-03-21T08:36:31;3.10;;;2.90;;
10246;SDS011;5168;47.854;7.944;2023-03-21T08:38:57;2.77;;;2.57;;
10246;SDS011;5168;47.854;7.944;2023-03-21T08:41:33;2.90;;;2.70;;
10246;SDS011;5168;47.854;7.944;2023-03-21T08:44:00;3.80;;;2.87;;
10246;SDS011;5168;47.854;7.944;2023-03-21T08:46:27;2.80;;;2.60;;
10246;SDS011;5168;47.854;7.944;2023-03-21T08:48:53;2.53;;;2.33;;
10246;SDS011;5168;47.854;7.944;2023-03-21T08:51:19;2.90;;;2.70;;
10246;SDS011;5168;47.854;7.944;2023-03-21T08:53:45;2.60;;;2.40;;
10246;SDS011;5168;47.854;7.944;2023-03-21T08:56:13;3.07;;;2.87;;
10246;SDS011;5168;47.854;7.944;2023-03-21T08:58:38;2.70;;;2.50;;
10246;SDS011;5168;47.854;7.944;2023-03-21T09:01:05;2.80;;;2.60;;
10246;SDS011;5168;47.854;7.944;2023-03-21T09:03:35;3.13;;;2.70;;
10246;SDS011;5168;47.854;7.944;2023-03-21T09:06:02;3.03;;;2.73;;
10246;SDS011;5168;47.854;7.944;2023-03-21T09:08:27;3.90;;;2.70;;
10246;SDS011;5168;47.854;7.944;2023-03-21T09:10:53;3.13;;;2.77;;
10246;SDS011;5168;47.854;7.944;2023-03-21T09:13:20;2.73;;;2.53;;
10246;SDS011;5168;47.854;7.944;2023-03-21T09:15:46;3.63;;;2.43;;
10246;SDS011;5168;47.854;7.944;2023-03-21T09:18:12;3.57;;;2.47;;
10246;SDS011;5168;47.854;7.944;2023-03-21T09:20:39;2.53;;;2.33;;
10246;SDS011;5168;47.854;7.944;2023-03-21T09:23:09;2.47;;;2.27;;
10246;SDS011;5168;47.854;7.944;2023-03-21T09:25:36;2.17;;;1.97;;
10246;SDS011;5168;47.854;7.944;2023-03-21T09:28:02;2.33;;;2.13;;
10246;SDS011;5168;47.854;7.944;2023-03-21T09:30:29;2.20;;;2.00;;
10246;SDS011;5168;47.854;7.944;2023-03-21T09:32:59;2.33;;;2.17;;
10246;SDS011;5168;47.854;7.944;2023-03-21T09:35:26;2.80;;;1.90;;
10246;SDS011;5168;47.854;7.944;2023-03-21T09:37:52;2.20;;;1.90;;
10246;SDS011;5168;47.854;7.944;2023-03-21T09:43:27;1.90;;;1.80;;
10246;SDS011;5168;47.854;7.944;2023-03-21T09:48:49;2.13;;;1.90;;
10246;SDS011;5168;47.854;7.944;2023-03-21T09:51:34;2.37;;;2.17;;
10246;SDS011;5168;47.854;7.944;2023-03-21T09:54:16;2.27;;;2.07;;
10246;SDS011;5168;47.854;7.944;2023-03-21T09:56:51;2.30;;;2.10;;
10246;SDS011;5168;47.854;7.944;2023-03-21T09:59:21;2.20;;;2.00;;
10246;SDS011;5168;47.854;7.944;2023-03-21T10:01:54;2.23;;;2.03;;
10246;SDS011;5168;47.854;7.944;2023-03-21T10:04:22;2.30;;;2.10;;
10246;SDS011;5168;47.854;7.944;2023-03-21T10:06:53;2.20;;;2.00;;
10246;SDS011;5168;47.854;7.944;2023-03-21T10:09:25;6.07;;;2.00;;
10246;SDS011;5168;47.854;7.944;2023-03-21T10:11:58;2.10;;;1.90;;
10246;SDS011;5168;47.854;7.944;2023-03-21T10:14:32;2.20;;;1.70;;
10246;SDS011;5168;47.854;7.944;2023-03-21T10:17:03;3.50;;;1.90;;
10246;SDS011;5168;47.854;7.944;2023-03-21T10:22:34;6.80;;;1.80;;
10246;SDS011;5168;47.854;7.944;2023-03-21T10:25:00;3.17;;;1.60;;
10246;SDS011;5168;47.854;7.944;2023-03-21T10:27:26;1.90;;;1.80;;
10246;SDS011;5168;47.854;7.944;2023-03-21T10:29:51;2.43;;;1.80;;
10246;SDS011;5168;47.854;7.944;2023-03-21T10:32:17;2.00;;;1.80;;
10246;SDS011;5168;47.854;7.944;2023-03-21T10:34:53;1.70;;;1.60;;
10246;SDS011;5168;47.854;7.944;2023-03-21T10:37:20;1.60;;;1.50;;
10246;SDS011;5168;47.854;7.944;2023-03-21T10:39:48;2.17;;;1.97;;
10246;SDS011;5168;47.854;7.944;2023-03-21T10:44:46;1.70;;;1.60;;
10246;SDS011;5168;47.854;7.944;2023-03-21T10:47:16;1.80;;;1.70;;
10246;SDS011;5168;47.854;7.944;2023-03-21T10:49:48;1.90;;;1.80;;
10246;SDS011;5168;47.854;7.944;2023-03-21T10:52:16;1.50;;;1.40;;
10246;SDS011;5168;47.854;7.944;2023-03-21T10:54:44;2.40;;;1.60;;
10246;SDS011;5168;47.854;7.944;2023-03-21T10:57:22;1.87;;;1.57;;
10246;SDS011;5168;47.854;7.944;2023-03-21T10:59:54;1.93;;;1.50;;
10246;SDS011;5168;47.854;7.944;2023-03-21T11:04:52;1.57;;;1.47;;
10246;SDS011;5168;47.854;7.944;2023-03-21T11:07:19;1.50;;;1.40;;
10246;SDS011;5168;47.854;7.944;2023-03-21T11:09:49;3.60;;;1.50;;
10246;SDS011;5168;47.854;7.944;2023-03-21T11:12:27;4.07;;;1.50;;
10246;SDS011;5168;47.854;7.944;2023-03-21T11:14:54;1.50;;;1.40;;
10246;SDS011;5168;47.854;7.944;2023-03-21T11:17:28;1.60;;;1.50;;
10246;SDS011;5168;47.854;7.944;2023-03-21T11:19:59;1.80;;;1.50;;
10246;SDS011;5168;47.854;7.944;2023-03-21T11:22:28;1.47;;;1.37;;
10246;SDS011;5168;47.854;7.944;2023-03-21T11:25:03;1.63;;;1.10;;
10246;SDS011;5168;47.854;7.944;2023-03-21T11:27:33;1.30;;;1.20;;
10246;SDS011;5168;47.854;7.944;2023-03-21T11:30:00;1.50;;;1.40;;
10246;SDS011;5168;47.854;7.944;2023-03-21T11:32:32;1.53;;;1.37;;
10246;SDS011;5168;47.854;7.944;2023-03-21T11:35:12;1.40;;;1.30;;
10246;SDS011;5168;47.854;7.944;2023-03-21T11:37:41;1.33;;;1.23;;
10246;SDS011;5168;47.854;7.944;2023-03-21T11:40:24;1.30;;;1.20;;
10246;SDS011;5168;47.854;7.944;2023-03-21T11:42:56;2.43;;;1.57;;
10246;SDS011;5168;47.854;7.944;2023-03-21T11:45:26;1.50;;;1.40;;
10246;SDS011;5168;47.854;7.944;2023-03-21T11:47:58;1.63;;;1.30;;
10246;SDS011;5168;47.854;7.944;2023-03-21T11:50:26;3.23;;;1.40;;
10246;SDS011;5168;47.854;7.944;2023-03-21T11:58:36;1.67;;;1.40;;
10246;SDS011;5168;47.854;7.944;2023-03-21T12:01:12;1.50;;;1.40;;
10246;SDS011;5168;47.854;7.944;2023-03-21T12:06:18;1.50;;;1.40;;
10246;SDS011;5168;47.854;7.944;2023-03-21T12:11:31;1.60;;;1.50;;
10246;SDS011;5168;47.854;7.944;2023-03-21T12:17:09;1.40;;;1.30;;
10246;SDS011;5168;47.854;7.944;2023-03-21T12:20:26;1.40;;;1.30;;
10246;SDS011;5168;47.854;7.944;2023-03-21T12:22:46;1.63;;;1.53;;
10246;SDS011;5168;47.854;7.944;2023-03-21T12:25:29;1.57;;;1.30;;
10246;SDS011;5168;47.854;7.944;2023-03-21T12:28:46;1.50;;;1.40;;
10246;SDS011;5168;47.854;7.944;2023-03-21T12:31:08;2.43;;;1.40;;
10246;SDS011;5168;47.854;7.944;2023-03-21T12:36:50;1.40;;;1.30;;
10246;SDS011;5168;47.854;7.944;2023-03-21T12:39:38;2.43;;;1.50;;
10246;SDS011;5168;47.854;7.944;2023-03-21T12:45:14;3.50;;;1.40;;
10246;SDS011;5168;47.854;7.944;2023-03-21T12:48:10;2.37;;;1.50;;
10246;SDS011;5168;47.854;7.944;2023-03-21T12:50:45;1.40;;;1.30;;
10246;SDS011;5168;47.854;7.944;2023-03-21T12:56:19;1.50;;;1.40;;
10246;SDS011;5168;47.854;7.944;2023-03-21T12:59:12;1.50;;;1.40;;
10246;SDS011;5168;47.854;7.944;2023-03-21T13:02:15;1.63;;;1.53;;
10246;SDS011;5168;47.854;7.944;2023-03-21T13:07:24;1.67;;;1.57;;
10246;SDS011;5168;47.854;7.944;2023-03-21T13:09:53;2.00;;;1.50;;
10246;SDS011;5168;47.854;7.944;2023-03-21T13:14:50;3.07;;;1.50;;
10246;SDS011;5168;47.854;7.944;2023-03-21T13:17:29;1.50;;;1.40;;
10246;SDS011;5168;47.854;7.944;2023-03-21T13:20:03;1.70;;;1.50;;
10246;SDS011;5168;47.854;7.944;2023-03-21T13:22:40;1.50;;;1.40;;
10246;SDS011;5168;47.854;7.944;2023-03-21T13:25:23;1.53;;;1.40;;
10246;SDS011;5168;47.854;7.944;2023-03-21T13:27:53;1.57;;;1.30;;
10246;SDS011;5168;47.854;7.944;2023-03-21T13:30:26;3.40;;;1.53;;
10246;SDS011;5168;47.854;7.944;2023-03-21T13:33:02;2.60;;;1.50;;
10246;SDS011;5168;47.854;7.944;2023-03-21T13:35:36;1.70;;;1.60;;
10246;SDS011;5168;47.854;7.944;2023-03-21T13:38:13;5.43;;;2.50;;
10246;SDS011;5168;47.854;7.944;2023-03-21T13:40:59;3.67;;;2.17;;
10246;SDS011;5168;47.854;7.944;2023-03-21T13:59:10;1.40;;;1.30;;
10246;SDS011;5168;47.854;7.944;2023-03-21T14:01:58;1.70;;;1.60;;
10246;SDS011;5168;47.854;7.944;2023-03-21T14:04:30;1.63;;;1.53;;
10246;SDS011;5168;47.854;7.944;2023-03-21T14:07:06;1.97;;;1.57;;
10246;SDS011;5168;47.854;7.944;2023-03-21T14:09:39;2.00;;;1.80;;
10246;SDS011;5168;47.854;7.944;2023-03-21T14:12:12;1.30;;;1.20;;
10246;SDS011;5168;47.854;7.944;2023-03-21T14:14:40;1.50;;;1.40;;
10246;SDS011;5168;47.854;7.944;2023-03-21T14:17:12;1.40;;;1.30;;
10246;SDS011;5168;47.854;7.944;2023-03-21T14:19:45;2.60;;;1.40;;
10246;SDS011;5168;47.854;7.944;2023-03-21T14:22:12;1.63;;;1.33;;
10246;SDS011;5168;47.854;7.944;2023-03-21T14:24:37;1.50;;;1.40;;
10246;SDS011;5168;47.854;7.944;2023-03-21T14:27:05;1.77;;;1.47;;
10246;SDS011;5168;47.854;7.944;2023-03-21T14:29:33;1.30;;;1.20;;
10246;SDS011;5168;47.854;7.944;2023-03-21T14:32:00;1.20;;;1.10;;
10246;SDS011;5168;47.854;7.944;2023-03-21T14:34:30;1.10;;;1.10;;
10246;SDS011;5168;47.854;7.944;2023-03-21T14:36:58;1.50;;;1.30;;
10246;SDS011;5168;47.854;7.944;2023-03-21T14:39:31;1.10;;;1.10;;
10246;SDS011;5168;47.854;7.944;2023-03-21T14:42:01;1.30;;;1.20;;
10246;SDS011;5168;47.854;7.944;2023-03-21T14:44:36;1.30;;;1.20;;
10246;SDS011;5168;47.854;7.944;2023-03-21T14:47:08;1.97;;;1.37;;
10246;SDS011;5168;47.854;7.944;2023-03-21T14:49:43;1.33;;;1.23;;
10246;SDS011;5168;47.854;7.944;2023-03-21T14:52:13;1.57;;;1.47;;
10246;SDS011;5168;47.854;7.944;2023-03-21T14:54:44;1.40;;;1.30;;
10246;SDS011;5168;47.854;7.944;2023-03-21T14:57:12;1.30;;;1.20;;
10246;SDS011;5168;47.854;7.944;2023-03-21T14:59:42;2.70;;;1.30;;
10246;SDS011;5168;47.854;7.944;2023-03-21T15:02:16;1.40;;;1.30;;
10246;SDS011;5168;47.854;7.944;2023-03-21T15:04:44;1.40;;;1.30;;
10246;SDS011;5168;47.854;7.944;2023-03-21T15:07:27;1.60;;;1.50;;
10246;SDS011;5168;47.854;7.944;2023-03-21T15:09:57;1.87;;;1.30;;
10246;SDS011;5168;47.854;7.944;2023-03-21T15:12:27;1.40;;;1.30;;
10246;SDS011;5168;47.854;7.944;2023-03-21T15:14:52;1.57;;;1.47;;
10246;SDS011;5168;47.854;7.944;2023-03-21T15:17:18;1.70;;;1.50;;
10246;SDS011;5168;47.854;7.944;2023-03-21T15:19:45;2.00;;;1.53;;
10246;SDS011;5168;47.854;7.944;2023-03-21T15:24:40;1.50;;;1.40;;
10246;SDS011;5168;47.854;7.944;2023-03-21T15:27:13;1.40;;;1.30;;
10246;SDS011;5168;47.854;7.944;2023-03-21T15:29:41;1.50;;;1.40;;
10246;SDS011;5168;47.854;7.944;2023-03-21T15:32:18;1.47;;;1.37;;
10246;SDS011;5168;47.854;7.944;2023-03-21T15:34:46;1.50;;;1.40;;
10246;SDS011;5168;47.854;7.944;2023-03-21T15:37:17;1.50;;;1.40;;
10246;SDS011;5168;47.854;7.944;2023-03-21T15:39:52;1.30;;;1.20;;
10246;SDS011;5168;47.854;7.944;2023-03-21T15:42:23;5.33;;;1.30;;
10246;SDS011;5168;47.854;7.944;2023-03-21T15:44:52;1.40;;;1.30;;
10246;SDS011;5168;47.854;7.944;2023-03-21T15:47:39;1.33;;;1.23;;
10246;SDS011;5168;47.854;7.944;2023-03-21T15:50:09;2.17;;;1.97;;
10246;SDS011;5168;47.854;7.944;2023-03-21T15:52:46;1.50;;;1.40;;
10246;SDS011;5168;47.854;7.944;2023-03-21T15:55:27;1.50;;;1.40;;
10246;SDS011;5168;47.854;7.944;2023-03-21T15:58:00;1.60;;;1.50;;
10246;SDS011;5168;47.854;7.944;2023-03-21T16:00:32;2.17;;;1.87;;
10246;SDS011;5168;47.854;7.944;2023-03-21T16:03:03;1.53;;;1.43;;
10246;SDS011;5168;47.854;7.944;2023-03-21T16:08:33;1.40;;;1.30;;
10246;SDS011;5168;47.854;7.944;2023-03-21T16:11:13;1.40;;;1.30;;
10246;SDS011;5168;47.854;7.944;2023-03-21T16:13:48;1.47;;;1.37;;
10246;SDS011;5168;47.854;7.944;2023-03-21T16:16:22;1.30;;;1.20;;
10246;SDS011;5168;47.854;7.944;2023-03-21T16:18:49;2.70;;;1.30;;
10246;SDS011;5168;47.854;7.944;2023-03-21T16:21:16;1.43;;;1.20;;
10246;SDS011;5168;47.854;7.944;2023-03-21T16:23:44;1.93;;;1.33;;
10246;SDS011;5168;47.854;7.944;2023-03-21T16:26:15;2.17;;;1.40;;
10246;SDS011;5168;47.854;7.944;2023-03-21T16:28:42;1.40;;;1.30;;
10246;SDS011;5168;47.854;7.944;2023-03-21T16:31:13;2.97;;;1.37;;
10246;SDS011;5168;47.854;7.944;2023-03-21T16:33:44;1.60;;;1.50;;
10246;SDS011;5168;47.854;7.944;2023-03-21T16:36:13;1.40;;;1.30;;
10246;SDS011;5168;47.854;7.944;2023-03-21T16:38:42;1.40;;;1.30;;
10246;SDS011;5168;47.854;7.944;2023-03-21T16:41:13;1.40;;;1.30;;
10246;SDS011;5168;47.854;7.944;2023-03-21T16:43:40;1.50;;;1.40;;
10246;SDS011;5168;47.854;7.944;2023-03-21T16:46:14;1.43;;;1.30;;
10246;SDS011;5168;47.854;7.944;2023-03-21T16:48:45;1.50;;;1.40;;